createdAt,value
2023-03-26T00:02:29.820Z,92.17
2023-03-26T00:04:57.917Z,91.29
2023-03-26T00:07:27.952Z,91.35
2023-03-26T00:09:57.901Z,90.88
2023-03-26T00:12:26.292Z,91.78
2023-03-26T00:14:54.191Z,91.76
2023-03-26T00:17:22.585Z,91.72
2023-03-26T00:19:53.645Z,92.25
2023-03-26T00:22:23.573Z,91.73
2023-03-26T00:24:51.496Z,92.39
2023-03-26T00:27:19.348Z,92.80
2023-03-26T00:29:48.246Z,93.20
2023-03-26T00:32:16.817Z,93.17
2023-03-26T00:34:46.183Z,94.03
2023-03-26T00:37:15.507Z,93.65
2023-03-26T00:39:44.584Z,94.32
2023-03-26T00:42:14.758Z,94.64
2023-03-26T00:44:42.604Z,93.85
2023-03-26T00:47:10.942Z,93.56
2023-03-26T00:49:39.346Z,93.44
2023-03-26T00:52:08.697Z,92.84
2023-03-26T00:54:38.015Z,93.59
2023-03-26T00:57:06.734Z,93.52
2023-03-26T00:59:35.770Z,93.12
2023-03-26T01:02:04.586Z,94.02
2023-03-26T01:04:37.502Z,94.50
2023-03-26T01:07:12.728Z,94.51
2023-03-26T01:09:50.181Z,94.74
2023-03-26T01:12:22.940Z,95.65
2023-03-26T01:14:52.742Z,94.95
2023-03-26T01:17:22.033Z,95.18
2023-03-26T01:19:55.361Z,95.49
2023-03-26T01:22:25.824Z,95.45
2023-03-26T01:24:56.625Z,95.98
2023-03-26T01:27:33.520Z,95.79
2023-03-26T01:30:10.513Z,95.56
2023-03-26T01:32:49.474Z,96.15
2023-03-26T01:35:31.031Z,96.68
2023-03-26T01:38:10.557Z,95.72
2023-03-26T01:40:47.026Z,95.53
2023-03-26T01:43:26.375Z,96.11
2023-03-26T01:45:57.143Z,95.45
2023-03-26T01:48:30.675Z,95.79
2023-03-26T01:50:58.831Z,95.54
2023-03-26T01:53:27.144Z,96.07
2023-03-26T01:56:06.933Z,95.50
2023-03-26T01:58:42.626Z,94.92
2023-03-26T02:01:24.314Z,95.23
2023-03-26T02:03:58.808Z,94.97
2023-03-26T02:06:31.328Z,94.79
2023-03-26T02:09:04.404Z,95.22
2023-03-26T02:11:38.149Z,95.08
2023-03-26T02:14:08.134Z,95.90
2023-03-26T02:16:36.449Z,95.83
2023-03-26T02:19:15.955Z,96.06
2023-03-26T02:21:44.056Z,96.64
2023-03-26T02:24:13.932Z,97.10
2023-03-26T02:26:45.197Z,97.31
2023-03-26T02:29:19.404Z,96.37
2023-03-26T02:31:49.341Z,96.81
2023-03-26T02:34:18.092Z,96.73
2023-03-26T02:36:54.084Z,96.32
2023-03-26T02:39:22.161Z,96.82
2023-03-26T02:41:59.018Z,96.63
2023-03-26T02:44:28.248Z,96.26
2023-03-26T02:46:58.915Z,97.46
2023-03-26T02:49:49.634Z,96.50
2023-03-26T02:52:24.875Z,96.81
2023-03-26T02:54:54.706Z,96.53
2023-03-26T02:57:25.980Z,95.58
2023-03-26T03:00:13.282Z,95.23
2023-03-26T03:02:47.942Z,95.24
2023-03-26T03:05:32.107Z,94.59
2023-03-26T03:08:19.276Z,94.90
2023-03-26T03:11:03.754Z,95.60
2023-03-26T03:13:41.123Z,95.65
2023-03-26T03:16:10.315Z,95.82
2023-03-26T03:18:38.201Z,96.12
2023-03-26T03:21:07.308Z,96.48
2023-03-26T03:23:35.526Z,97.12
2023-03-26T03:26:16.746Z,97.48
2023-03-26T03:28:52.124Z,97.27
2023-03-26T03:31:19.992Z,97.47
2023-03-26T03:33:48.217Z,96.97
2023-03-26T03:36:22.038Z,97.02
2023-03-26T03:39:02.456Z,97.76
2023-03-26T03:41:31.175Z,98.35
2023-03-26T03:44:02.939Z,97.41
2023-03-26T03:46:32.736Z,97.25
2023-03-26T03:49:00.788Z,97.19
2023-03-26T03:51:35.191Z,98.51
2023-03-26T03:54:06.058Z,98.89
2023-03-26T03:57:02.083Z,97.21
2023-03-26T03:59:33.959Z,97.82
2023-03-26T04:02:04.658Z,98.10
2023-03-26T04:04:50.093Z,98.28
2023-03-26T04:07:20.515Z,98.99
2023-03-26T04:10:10.589Z,98.82
2023-03-26T04:12:57.007Z,98.92
2023-03-26T04:15:42.940Z,99.33
2023-03-26T04:18:11.726Z,99.23
2023-03-26T04:20:46.556Z,99.28
2023-03-26T04:23:21.136Z,99.22
2023-03-26T04:25:54.722Z,99.53
2023-03-26T04:28:36.209Z,99.32
2023-03-26T04:31:32.034Z,100.00
2023-03-26T04:34:08.059Z,99.73
2023-03-26T04:36:46.303Z,100.00
2023-03-26T04:39:15.287Z,99.09
2023-03-26T04:42:08.697Z,99.81
2023-03-26T04:44:50.702Z,99.95
2023-03-26T04:47:20.334Z,99.87
2023-03-26T04:49:48.826Z,99.08
2023-03-26T04:52:18.520Z,100.00
2023-03-26T04:54:58.827Z,99.03
2023-03-26T04:57:36.715Z,99.41
2023-03-26T05:00:14.851Z,99.76
2023-03-26T05:02:45.829Z,100.00
2023-03-26T05:05:14.050Z,100.00
2023-03-26T05:07:44.460Z,100.00
2023-03-26T05:10:20.326Z,100.00
2023-03-26T05:12:55.652Z,100.00
2023-03-26T05:15:27.523Z,100.00
2023-03-26T05:17:59.749Z,100.00
2023-03-26T05:20:32.476Z,100.00
2023-03-26T05:23:00.353Z,99.99
2023-03-26T05:25:34.859Z,100.00
2023-03-26T05:28:04.741Z,100.00
2023-03-26T05:30:49.924Z,100.00
2023-03-26T05:33:19.340Z,100.00
2023-03-26T05:36:03.125Z,100.00
2023-03-26T05:38:32.943Z,100.00
2023-03-26T05:41:04.040Z,99.92
2023-03-26T05:43:32.771Z,100.00
2023-03-26T05:46:13.412Z,100.00
2023-03-26T05:48:44.548Z,100.00
2023-03-26T05:51:13.014Z,100.00
2023-03-26T05:53:44.563Z,100.00
2023-03-26T05:56:36.004Z,100.00
2023-03-26T05:59:22.630Z,100.00
2023-03-26T06:02:10.649Z,100.00
2023-03-26T06:04:58.850Z,100.00
2023-03-26T06:07:45.273Z,100.00
2023-03-26T06:10:19.237Z,100.00
2023-03-26T06:12:47.650Z,100.00
2023-03-26T06:15:15.958Z,100.00
2023-03-26T06:17:49.700Z,100.00
2023-03-26T06:20:46.436Z,100.00
2023-03-26T06:23:31.668Z,100.00
2023-03-26T06:26:19.024Z,100.00
2023-03-26T06:29:09.518Z,100.00
2023-03-26T06:31:48.888Z,100.00
2023-03-26T06:34:22.819Z,100.00
2023-03-26T06:36:52.955Z,100.00
2023-03-26T06:39:22.404Z,100.00
2023-03-26T06:42:16.683Z,100.00
2023-03-26T06:45:09.041Z,100.00
2023-03-26T06:47:55.571Z,99.46
2023-03-26T06:50:50.408Z,100.00
2023-03-26T06:53:38.031Z,100.00
2023-03-26T06:56:26.246Z,98.88
2023-03-26T06:59:06.804Z,98.61
2023-03-26T07:01:53.248Z,98.84
2023-03-26T07:04:59.333Z,99.21
2023-03-26T07:07:46.307Z,99.55
2023-03-26T07:10:34.768Z,96.62
2023-03-26T07:13:11.826Z,96.76
2023-03-26T07:16:02.645Z,96.54
2023-03-26T07:18:49.077Z,96.02
2023-03-26T07:21:22.592Z,96.03
2023-03-26T07:23:51.593Z,94.62
2023-03-26T07:26:48.997Z,94.44
2023-03-26T07:29:27.603Z,93.94
2023-03-26T07:32:19.177Z,94.40
2023-03-26T07:34:58.266Z,94.45
2023-03-26T07:37:44.838Z,96.49
2023-03-26T07:40:53.213Z,93.30
2023-03-26T07:44:11.521Z,92.80
2023-03-26T07:46:53.318Z,91.28
2023-03-26T07:49:37.628Z,92.13
2023-03-26T07:52:28.298Z,92.72
2023-03-26T07:55:08.367Z,91.09
2023-03-26T07:58:12.697Z,89.89
2023-03-26T08:00:57.778Z,89.56
2023-03-26T08:03:42.238Z,90.51
2023-03-26T08:06:36.191Z,90.25
2023-03-26T08:09:35.170Z,90.93
2023-03-26T08:12:27.297Z,91.12
2023-03-26T08:15:05.119Z,89.72
2023-03-26T08:17:42.741Z,89.27
2023-03-26T08:20:25.088Z,89.73
2023-03-26T08:23:02.100Z,90.05
2023-03-26T08:25:34.841Z,89.03
2023-03-26T08:28:23.217Z,88.51
2023-03-26T08:30:54.999Z,88.61
2023-03-26T08:33:28.158Z,89.23
2023-03-26T08:35:56.291Z,89.41
2023-03-26T08:38:24.748Z,89.51
2023-03-26T08:41:42.363Z,88.42
2023-03-26T08:44:47.561Z,88.83
2023-03-26T08:47:55.607Z,88.14
2023-03-26T08:50:49.480Z,88.04
2023-03-26T08:53:51.409Z,87.34
2023-03-26T08:56:24.555Z,87.12
2023-03-26T08:59:19.173Z,87.14
2023-03-26T09:02:20.597Z,85.75
2023-03-26T09:05:19.835Z,85.10
2023-03-26T09:08:17.113Z,82.24
2023-03-26T09:10:58.604Z,82.62
2023-03-26T09:13:49.626Z,82.50
2023-03-26T09:16:59.123Z,82.89
2023-03-26T09:19:53.409Z,82.83
2023-03-26T09:23:00.323Z,80.00
2023-03-26T09:25:57.707Z,80.18
2023-03-26T09:28:58.222Z,78.60
2023-03-26T09:31:57.775Z,79.29
2023-03-26T09:34:33.081Z,79.57
2023-03-26T09:37:18.783Z,78.47
2023-03-26T09:40:01.975Z,76.39
2023-03-26T09:42:39.889Z,77.94
2023-03-26T09:45:41.769Z,78.62
2023-03-26T09:48:45.787Z,76.71
2023-03-26T09:51:32.227Z,78.29
2023-03-26T09:54:33.803Z,78.54
2023-03-26T09:57:11.855Z,84.86
2023-03-26T10:00:01.622Z,86.76
2023-03-26T10:02:45.499Z,88.37
2023-03-26T10:05:41.506Z,87.82
2023-03-26T10:08:32.659Z,88.17
2023-03-26T10:11:06.312Z,90.35
2023-03-26T10:13:49.147Z,88.79
2023-03-26T10:16:27.133Z,87.81
2023-03-26T10:19:11.899Z,87.60
2023-03-26T10:21:46.934Z,89.16
2023-03-26T10:24:29.148Z,87.82
2023-03-26T10:27:25.286Z,88.92
2023-03-26T10:30:25.871Z,88.16
2023-03-26T10:33:05.944Z,86.54
2023-03-26T10:35:46.246Z,87.66
2023-03-26T10:38:23.428Z,87.79
2023-03-26T10:41:05.893Z,88.06
2023-03-26T10:44:07.379Z,87.58
2023-03-26T10:46:52.181Z,87.94
2023-03-26T10:49:55.949Z,86.79
2023-03-26T10:52:26.143Z,86.06
2023-03-26T10:54:57.237Z,87.82
2023-03-26T10:57:39.205Z,88.33
2023-03-26T11:00:16.954Z,86.87
2023-03-26T11:02:55.653Z,85.70
2023-03-26T11:05:47.490Z,85.43
2023-03-26T11:08:31.768Z,85.79
2023-03-26T11:11:06.432Z,86.74
2023-03-26T11:13:46.930Z,84.38
2023-03-26T11:16:22.971Z,84.94
2023-03-26T11:18:57.400Z,83.71
2023-03-26T11:21:34.503Z,82.71
2023-03-26T11:24:24.131Z,82.14
2023-03-26T11:26:57.053Z,84.17
2023-03-26T11:29:50.789Z,83.41
2023-03-26T11:32:23.186Z,84.53
2023-03-26T11:34:59.715Z,85.52
2023-03-26T11:37:33.725Z,84.39
2023-03-26T11:40:06.668Z,83.02
2023-03-26T11:42:34.916Z,84.61
2023-03-26T11:45:06.573Z,85.95
2023-03-26T11:47:43.679Z,83.86
2023-03-26T11:50:17.956Z,86.60
2023-03-26T11:52:47.894Z,84.02
2023-03-26T11:55:16.202Z,85.39
2023-03-26T11:57:51.030Z,87.20
2023-03-26T12:00:21.365Z,86.69
2023-03-26T12:02:50.813Z,85.17
2023-03-26T12:05:21.223Z,85.61
2023-03-26T12:07:58.538Z,85.88
2023-03-26T12:10:30.986Z,84.44
2023-03-26T12:13:01.345Z,86.25
2023-03-26T12:15:32.009Z,85.25
2023-03-26T12:18:18.738Z,87.27
2023-03-26T12:20:48.164Z,87.50
2023-03-26T12:23:37.610Z,89.38
2023-03-26T12:26:16.064Z,88.50
2023-03-26T12:28:48.603Z,84.51
2023-03-26T12:31:19.525Z,87.81
2023-03-26T12:34:07.627Z,88.40
2023-03-26T12:36:38.980Z,89.72
2023-03-26T12:40:07.269Z,90.05
2023-03-26T12:44:47.592Z,90.17
2023-03-26T12:45:17.225Z,91.28
2023-03-26T12:47:59.507Z,89.27
2023-03-26T12:50:43.233Z,87.44
2023-03-26T12:53:27.058Z,83.80
2023-03-26T12:56:09.329Z,86.29
2023-03-26T12:58:59.250Z,87.20
2023-03-26T13:01:37.123Z,87.94
2023-03-26T13:05:02.341Z,89.47
2023-03-26T13:07:54.686Z,91.81
2023-03-26T13:10:40.459Z,90.58
2023-03-26T13:13:45.583Z,92.70
2023-03-26T13:16:24.912Z,93.88
2023-03-26T13:18:56.594Z,92.00
2023-03-26T13:21:36.067Z,90.93
2023-03-26T13:24:16.710Z,92.23
2023-03-26T13:26:57.849Z,93.69
2023-03-26T13:29:38.729Z,94.29
2023-03-26T13:32:16.308Z,95.42
2023-03-26T13:35:01.959Z,97.62
2023-03-26T13:37:36.100Z,98.48
2023-03-26T13:40:22.271Z,98.03
2023-03-26T13:43:06.639Z,98.71
2023-03-26T13:45:47.489Z,99.39
2023-03-26T13:48:20.219Z,98.98
2023-03-26T13:50:57.986Z,99.03
2023-03-26T13:53:31.644Z,98.53
2023-03-26T13:56:01.361Z,97.05
2023-03-26T13:58:36.863Z,95.31
2023-03-26T14:01:12.326Z,96.67
2023-03-26T15:42:54.506Z,95.51
2023-03-26T15:45:42.665Z,96.67
2023-03-26T15:48:37.421Z,94.81
2023-03-26T15:51:46.423Z,94.28
2023-03-26T15:54:47.009Z,94.94
2023-03-26T15:57:39.119Z,96.86
2023-03-26T16:00:31.856Z,95.01
2023-03-26T16:03:34.418Z,96.01
2023-03-26T16:06:35.782Z,95.67
2023-03-26T16:09:38.748Z,94.16
2023-03-26T16:12:31.804Z,90.99
2023-03-26T16:15:32.302Z,91.51
2023-03-26T16:18:33.950Z,91.82
2023-03-26T16:21:56.092Z,90.66
2023-03-26T16:24:47.518Z,90.52
2023-03-26T16:27:43.093Z,89.78
2023-03-26T16:30:33.036Z,91.05
2023-03-26T16:33:21.597Z,90.30
2023-03-26T16:36:25.885Z,88.93
2023-03-26T16:39:22.249Z,89.20
2023-03-26T16:42:37.008Z,84.68
2023-03-26T16:45:19.062Z,85.50
